createdAt,value
2022-08-17T00:02:25.462Z,86.22
2022-08-17T00:04:54.566Z,87.22
2022-08-17T00:07:21.409Z,85.45
2022-08-17T00:09:48.461Z,84.31
2022-08-17T00:12:41.742Z,84.64
2022-08-17T00:15:02.318Z,87.26
2022-08-17T00:17:29.506Z,87.64
2022-08-17T00:19:56.408Z,85.66
2022-08-17T00:22:32.815Z,84.49
2022-08-17T00:25:08.742Z,84.20
2022-08-17T00:27:36.495Z,84.86
2022-08-17T00:30:07.562Z,86.20
2022-08-17T00:33:23.470Z,84.91
2022-08-17T00:35:29.815Z,83.16
2022-08-17T00:37:56.941Z,82.63
2022-08-17T00:40:24.803Z,83.24
2022-08-17T00:42:52.983Z,83.70
2022-08-17T00:45:20.241Z,83.20
2022-08-17T00:47:47.485Z,81.87
2022-08-17T00:50:15.864Z,81.70
2022-08-17T00:52:54.388Z,83.25
2022-08-17T00:55:22.202Z,84.63
2022-08-17T00:57:55.182Z,83.24
2022-08-17T01:00:29.349Z,81.79
2022-08-17T01:03:08.280Z,82.04
2022-08-17T01:05:37.913Z,83.33
2022-08-17T01:08:12.836Z,84.46
2022-08-17T01:10:59.917Z,83.27
2022-08-17T01:13:49.869Z,82.63
2022-08-17T01:16:36.863Z,84.61
2022-08-17T01:19:19.655Z,85.33
2022-08-17T01:22:11.170Z,85.70
2022-08-17T01:24:47.254Z,83.58
2022-08-17T01:27:14.479Z,82.16
2022-08-17T01:29:45.006Z,82.97
2022-08-17T01:32:12.793Z,83.62
2022-08-17T01:34:43.410Z,84.84
2022-08-17T01:37:13.831Z,83.27
2022-08-17T01:39:43.775Z,82.56
2022-08-17T01:42:32.604Z,82.37
2022-08-17T01:45:04.282Z,82.96
2022-08-17T01:47:31.951Z,84.48
2022-08-17T01:50:11.894Z,84.19
2022-08-17T01:52:39.478Z,83.63
2022-08-17T01:55:07.304Z,83.54
2022-08-17T01:57:34.649Z,83.94
2022-08-17T02:00:01.698Z,85.92
2022-08-17T02:02:38.373Z,85.09
2022-08-17T02:05:06.550Z,83.84
2022-08-17T02:08:00.586Z,83.80
2022-08-17T02:10:34.051Z,85.70
2022-08-17T02:13:02.347Z,84.59
2022-08-17T02:15:29.879Z,83.58
2022-08-17T02:17:56.907Z,82.95
2022-08-17T02:20:42.244Z,83.02
2022-08-17T02:23:11.333Z,87.01
2022-08-17T02:25:38.938Z,86.12
2022-08-17T02:28:05.989Z,85.35
2022-08-17T02:30:59.370Z,87.02
2022-08-17T02:33:21.511Z,88.08
2022-08-17T02:35:48.310Z,86.41
2022-08-17T02:38:15.169Z,84.30
2022-08-17T02:40:41.866Z,84.26
2022-08-17T02:43:08.984Z,85.36
2022-08-17T02:45:36.340Z,87.52
2022-08-17T02:48:04.293Z,86.12
2022-08-17T02:50:31.227Z,84.62
2022-08-17T02:53:02.553Z,83.36
2022-08-17T02:55:37.711Z,84.55
2022-08-17T02:58:04.655Z,87.54
2022-08-17T03:00:34.193Z,87.03
2022-08-17T03:03:02.245Z,86.30
2022-08-17T03:05:31.025Z,87.28
2022-08-17T03:07:58.375Z,88.05
2022-08-17T03:10:25.527Z,87.32
2022-08-17T03:12:52.704Z,85.31
2022-08-17T03:15:25.618Z,84.20
2022-08-17T03:17:53.835Z,85.17
2022-08-17T03:20:20.882Z,85.34
2022-08-17T03:22:53.588Z,86.80
2022-08-17T03:25:24.399Z,84.75
2022-08-17T03:27:51.587Z,83.46
2022-08-17T03:30:18.714Z,83.76
2022-08-17T03:32:49.140Z,85.01
2022-08-17T03:35:17.963Z,86.07
2022-08-17T03:37:46.098Z,85.65
2022-08-17T03:40:13.501Z,85.96
2022-08-17T03:42:40.933Z,86.12
2022-08-17T03:45:10.720Z,86.62
2022-08-17T03:47:57.026Z,86.28
2022-08-17T03:50:43.105Z,83.94
2022-08-17T03:53:31.151Z,83.54
2022-08-17T03:56:20.924Z,84.59
2022-08-17T03:58:48.175Z,86.20
2022-08-17T04:01:15.483Z,85.71
2022-08-17T04:03:42.657Z,83.83
2022-08-17T04:06:09.590Z,84.81
2022-08-17T04:08:36.979Z,85.54
2022-08-17T04:11:04.130Z,86.58
2022-08-17T04:13:31.409Z,84.47
2022-08-17T04:15:59.560Z,82.52
2022-08-17T04:18:26.708Z,82.53
2022-08-17T04:20:53.781Z,83.04
2022-08-17T04:23:20.699Z,83.74
2022-08-17T04:25:49.797Z,83.07
2022-08-17T04:28:17.868Z,81.58
2022-08-17T04:30:45.363Z,81.40
2022-08-17T04:33:14.965Z,82.14
2022-08-17T04:35:45.152Z,82.81
2022-08-17T04:38:14.785Z,82.14
2022-08-17T04:41:00.752Z,80.57
2022-08-17T04:43:28.315Z,80.93
2022-08-17T04:46:00.375Z,82.83
2022-08-17T04:48:36.466Z,84.22
2022-08-17T04:51:06.764Z,82.97
2022-08-17T04:53:33.603Z,81.42
2022-08-17T04:56:00.546Z,81.11
2022-08-17T04:58:27.598Z,82.11
2022-08-17T05:00:54.786Z,84.20
2022-08-17T05:03:21.616Z,82.42
2022-08-17T05:05:51.203Z,80.70
2022-08-17T05:08:19.570Z,80.37
2022-08-17T05:10:46.630Z,82.81
2022-08-17T05:13:22.063Z,83.29
2022-08-17T05:15:54.434Z,83.87
2022-08-17T05:18:21.818Z,81.47
2022-08-17T05:20:52.486Z,80.69
2022-08-17T05:23:21.110Z,80.63
2022-08-17T05:25:50.341Z,81.49
2022-08-17T05:28:18.793Z,82.85
2022-08-17T05:30:51.883Z,81.60
2022-08-17T05:33:21.064Z,80.76
2022-08-17T05:35:49.688Z,81.66
2022-08-17T05:38:17.832Z,82.74
2022-08-17T05:40:45.186Z,81.59
2022-08-17T05:43:16.463Z,80.43
2022-08-17T05:45:59.363Z,80.19
2022-08-17T05:48:39.152Z,81.28
2022-08-17T05:51:33.382Z,82.35
2022-08-17T05:54:23.679Z,81.14
2022-08-17T05:57:07.754Z,80.14
2022-08-17T05:59:48.285Z,81.23
2022-08-17T06:02:29.359Z,81.71
2022-08-17T06:05:17.754Z,83.49
2022-08-17T06:07:53.663Z,80.31
2022-08-17T06:10:31.875Z,79.04
2022-08-17T06:13:01.848Z,79.48
2022-08-17T06:15:29.040Z,81.14
2022-08-17T06:18:01.751Z,82.13
2022-08-17T06:20:32.348Z,80.73
2022-08-17T07:12:37.947Z,80.76
2022-08-17T07:15:26.723Z,80.99
2022-08-17T07:17:53.584Z,81.45
2022-08-17T07:20:22.275Z,80.39
2022-08-17T07:23:04.373Z,79.17
2022-08-17T07:25:31.625Z,79.72
2022-08-17T07:28:00.653Z,80.56
2022-08-17T07:30:45.789Z,81.21
2022-08-17T07:33:26.300Z,79.29
2022-08-17T07:35:53.302Z,80.74
2022-08-17T07:38:25.259Z,81.30
2022-08-17T07:40:57.334Z,81.81
2022-08-17T07:43:37.637Z,82.79
2022-08-17T07:46:29.721Z,82.24
2022-08-17T07:49:15.920Z,80.70
2022-08-17T07:51:42.714Z,81.56
2022-08-17T07:54:21.026Z,82.50
2022-08-17T07:56:47.927Z,83.75
2022-08-17T07:59:16.497Z,83.05
2022-08-17T08:02:26.479Z,81.17
2022-08-17T08:05:06.745Z,82.24
2022-08-17T08:07:49.866Z,84.39
2022-08-17T08:10:35.317Z,85.68
2022-08-17T08:13:12.264Z,84.92
2022-08-17T08:15:54.313Z,85.91
2022-08-17T08:18:53.871Z,87.79
2022-08-17T08:21:44.222Z,88.72
2022-08-17T08:24:36.351Z,87.65
2022-08-17T08:27:06.861Z,85.87
2022-08-17T08:29:52.136Z,87.16
2022-08-17T08:32:37.731Z,89.18
2022-08-17T08:35:13.496Z,89.46
2022-08-17T08:38:07.989Z,90.34
2022-08-17T08:40:38.401Z,89.73
2022-08-17T08:43:17.520Z,90.79
2022-08-17T08:46:24.322Z,92.15
2022-08-17T08:49:59.130Z,90.67
2022-08-17T08:52:21.883Z,89.74
2022-08-17T08:54:55.483Z,90.88
2022-08-17T08:57:34.381Z,91.15
2022-08-17T09:07:05.326Z,93.44
2022-08-17T09:09:46.162Z,91.23
2022-08-17T09:12:41.544Z,91.31
2022-08-17T09:15:19.633Z,92.42
2022-08-17T09:18:14.901Z,92.16
2022-08-17T09:20:50.491Z,90.70
2022-08-17T09:23:31.980Z,89.92
2022-08-17T09:26:17.053Z,90.78
2022-08-17T09:28:46.255Z,87.23
2022-08-17T09:31:19.711Z,86.29
2022-08-17T09:33:47.899Z,88.06
2022-08-17T09:36:37.992Z,88.67
2022-08-17T09:39:13.435Z,89.33
2022-08-17T09:41:58.362Z,87.49
2022-08-17T09:44:39.481Z,87.87
2022-08-17T09:47:18.295Z,87.04
2022-08-17T09:49:48.729Z,87.59
2022-08-17T09:52:17.842Z,84.52
2022-08-17T09:54:45.691Z,84.61
2022-08-17T09:57:31.364Z,85.32
2022-08-17T10:00:11.912Z,84.58
2022-08-17T10:02:53.008Z,85.99
2022-08-17T10:05:26.852Z,84.96
2022-08-17T10:08:27.250Z,83.29
2022-08-17T10:11:50.395Z,84.45
2022-08-17T10:14:44.506Z,86.41
2022-08-17T10:17:32.118Z,85.21
2022-08-17T10:20:23.027Z,83.43
2022-08-17T10:23:12.832Z,84.31
2022-08-17T10:26:06.587Z,84.20
2022-08-17T10:28:55.542Z,83.07
2022-08-17T10:31:36.247Z,83.80
2022-08-17T10:34:28.366Z,84.33
2022-08-17T10:37:23.150Z,83.63
2022-08-17T10:40:18.604Z,83.90
2022-08-17T10:42:51.368Z,81.34
2022-08-17T10:45:21.354Z,81.39
2022-08-17T10:48:06.867Z,80.72
2022-08-17T10:50:43.832Z,79.53
2022-08-17T10:53:10.865Z,79.73
2022-08-17T10:55:38.837Z,79.59
2022-08-17T10:58:21.358Z,75.73
2022-08-17T11:00:51.485Z,74.13
2022-08-17T11:03:20.891Z,76.29
2022-08-17T11:05:55.331Z,78.15
2022-08-17T11:08:48.135Z,77.97
2022-08-17T11:11:25.148Z,74.81
2022-08-17T11:14:21.457Z,70.96
2022-08-17T11:17:26.693Z,71.27
2022-08-17T11:20:14.835Z,71.54
2022-08-17T11:23:09.974Z,72.17
2022-08-17T11:25:44.594Z,72.04
2022-08-17T11:28:18.883Z,70.50
2022-08-17T11:30:54.840Z,68.09
2022-08-17T11:33:36.890Z,66.34
2022-08-17T11:36:34.298Z,63.90
2022-08-17T11:39:24.832Z,62.97
2022-08-17T11:42:02.187Z,65.46
2022-08-17T11:44:51.461Z,65.05
2022-08-17T11:48:26.716Z,66.11
2022-08-17T11:51:18.018Z,67.30
2022-08-17T11:53:45.579Z,67.91
2022-08-17T11:56:48.486Z,66.51
2022-08-17T11:59:38.760Z,66.10
2022-08-17T12:02:31.498Z,62.45
2022-08-17T12:05:12.325Z,63.63
2022-08-17T12:07:52.333Z,63.30
2022-08-17T12:10:21.950Z,59.54
2022-08-17T12:12:50.127Z,59.15
2022-08-17T12:15:21.357Z,60.22
2022-08-17T12:17:53.164Z,61.00
2022-08-17T12:20:33.066Z,61.66
2022-08-17T12:23:18.137Z,62.18
2022-08-17T12:26:17.273Z,60.89
2022-08-17T12:28:46.330Z,62.59
2022-08-17T12:31:29.261Z,62.35
2022-08-17T12:33:56.097Z,61.24
2022-08-17T12:36:25.086Z,60.28
2022-08-17T12:38:56.813Z,60.37
2022-08-17T12:41:33.752Z,57.72
2022-08-17T12:44:34.878Z,58.29
2022-08-17T12:47:22.390Z,56.86
2022-08-17T12:49:52.312Z,57.22
2022-08-17T12:52:19.258Z,57.74
2022-08-17T12:54:50.815Z,56.46
2022-08-17T12:57:27.075Z,58.48
2022-08-17T13:00:00.589Z,59.32
2022-08-17T13:02:31.217Z,57.34
2022-08-17T13:04:59.890Z,57.07
2022-08-17T13:07:29.602Z,59.30
2022-08-17T13:09:56.751Z,58.66
2022-08-17T13:12:32.509Z,58.05
2022-08-17T13:14:59.964Z,56.01
2022-08-17T13:17:36.265Z,56.99
2022-08-17T13:20:05.162Z,56.49
2022-08-17T13:22:32.215Z,54.86
2022-08-17T13:25:03.487Z,55.09
2022-08-17T13:27:30.559Z,55.83
2022-08-17T13:29:59.928Z,55.61
2022-08-17T13:32:30.697Z,55.55
2022-08-17T13:35:13.523Z,55.31
2022-08-17T13:38:00.748Z,56.06
2022-08-17T13:40:36.411Z,55.78
2022-08-17T13:43:03.738Z,56.16
2022-08-17T13:45:43.277Z,56.31
2022-08-17T13:48:16.788Z,58.26
2022-08-17T13:50:51.744Z,62.27
2022-08-17T13:53:32.996Z,70.71
2022-08-17T13:56:01.691Z,75.54
2022-08-17T13:58:33.749Z,77.72
2022-08-17T14:01:32.444Z,77.12
2022-08-17T14:04:01.564Z,77.89
2022-08-17T14:06:52.612Z,76.16
2022-08-17T14:09:21.467Z,79.57
2022-08-17T14:11:48.680Z,79.57
2022-08-17T14:14:15.954Z,75.87
2022-08-17T14:16:43.286Z,74.17
2022-08-17T14:19:12.325Z,74.16
2022-08-17T14:21:42.322Z,74.12
2022-08-17T14:24:20.924Z,74.70
2022-08-17T14:26:49.193Z,76.18
2022-08-17T14:29:16.341Z,74.37
2022-08-17T14:31:43.493Z,72.89
2022-08-17T14:34:20.900Z,73.71
2022-08-17T14:36:48.510Z,74.70
2022-08-17T14:39:16.531Z,75.81
2022-08-17T14:41:44.381Z,75.92
2022-08-17T14:44:12.660Z,76.82
2022-08-17T14:46:40.933Z,76.10
2022-08-17T14:49:09.925Z,77.71
2022-08-17T14:51:44.182Z,79.08
2022-08-17T14:54:33.228Z,79.43
2022-08-17T14:57:23.840Z,80.76
2022-08-17T14:59:54.539Z,79.39
2022-08-17T15:02:29.157Z,78.25
2022-08-17T15:04:59.086Z,77.85
2022-08-17T15:07:26.228Z,78.47
2022-08-17T15:10:01.896Z,78.75
2022-08-17T15:12:33.303Z,78.87
2022-08-17T15:15:04.894Z,78.99
2022-08-17T15:17:44.662Z,76.75
2022-08-17T15:20:19.727Z,76.90
2022-08-17T15:22:49.234Z,77.45
2022-08-17T15:25:16.422Z,79.77
2022-08-17T15:27:44.066Z,82.76
2022-08-17T15:30:12.383Z,81.66
2022-08-17T15:32:48.203Z,81.51
2022-08-17T15:35:19.560Z,80.74
2022-08-17T15:38:11.135Z,80.01
2022-08-17T15:40:45.949Z,79.99
2022-08-17T15:43:27.614Z,81.12
2022-08-17T15:46:11.479Z,79.59
2022-08-17T15:48:43.037Z,77.23
2022-08-17T15:51:12.462Z,77.48
2022-08-17T15:53:39.969Z,78.81
2022-08-17T15:56:07.826Z,79.17
2022-08-17T15:58:37.538Z,80.40
2022-08-17T16:01:16.661Z,80.42
2022-08-17T16:04:06.507Z,78.75
2022-08-17T16:06:35.265Z,78.41
2022-08-17T16:09:02.590Z,78.36
2022-08-17T16:11:29.765Z,78.64
2022-08-17T16:13:56.899Z,79.61
2022-08-17T16:16:24.447Z,79.72
2022-08-17T16:18:54.505Z,78.16
2022-08-17T16:21:27.153Z,77.65
2022-08-17T16:24:00.486Z,77.90
2022-08-17T16:26:28.611Z,78.77
2022-08-17T16:28:56.281Z,79.48
2022-08-17T16:31:23.731Z,79.66
2022-08-17T16:34:16.211Z,78.60
2022-08-17T16:36:38.714Z,78.31
2022-08-17T16:39:05.982Z,78.72
2022-08-17T16:41:45.255Z,79.77
2022-08-17T16:44:17.613Z,80.88
2022-08-17T16:46:45.452Z,80.42
2022-08-17T16:49:31.940Z,78.99
2022-08-17T16:52:05.950Z,78.15
2022-08-17T16:54:33.012Z,78.89
2022-08-17T16:57:00.260Z,79.71
2022-08-17T16:59:38.715Z,80.53
2022-08-17T17:02:12.193Z,80.09
2022-08-17T17:04:45.973Z,78.82
2022-08-17T17:07:25.323Z,78.13
2022-08-17T17:09:55.033Z,78.49
2022-08-17T17:12:32.302Z,79.20
2022-08-17T17:15:09.908Z,80.07
2022-08-17T17:17:37.875Z,79.48
2022-08-17T17:20:10.240Z,77.84
2022-08-17T17:23:00.028Z,77.75
2022-08-17T17:25:49.016Z,78.42
2022-08-17T17:28:24.466Z,78.66
2022-08-17T17:30:56.312Z,79.33
2022-08-17T17:33:50.093Z,79.36
2022-08-17T17:36:34.421Z,78.08
2022-08-17T17:39:05.299Z,78.16
2022-08-17T17:41:37.179Z,78.66
2022-08-17T17:44:11.381Z,79.80
2022-08-17T17:46:41.864Z,80.61
2022-08-17T17:49:10.778Z,79.97
2022-08-17T17:52:08.056Z,78.53
2022-08-17T17:54:52.560Z,78.57
2022-08-17T17:57:29.243Z,80.26
2022-08-17T18:00:16.881Z,82.79
2022-08-17T18:02:47.367Z,83.74
2022-08-17T18:05:44.422Z,81.94
2022-08-17T18:08:32.122Z,80.20
2022-08-17T18:11:24.346Z,80.84
2022-08-17T18:14:14.379Z,81.61
2022-08-17T18:16:43.189Z,82.60
2022-08-17T18:19:14.564Z,81.65
2022-08-17T18:21:45.849Z,80.29
2022-08-17T18:24:13.548Z,80.20
2022-08-17T18:26:55.085Z,80.90
2022-08-17T18:29:25.974Z,81.83
2022-08-17T18:32:32.345Z,82.78
2022-08-17T18:35:27.243Z,81.69
2022-08-17T18:38:38.732Z,79.89
2022-08-17T18:41:25.139Z,80.36
2022-08-17T18:44:01.266Z,81.72
2022-08-17T18:46:34.521Z,82.58
2022-08-17T18:49:02.161Z,81.76
2022-08-17T18:51:41.373Z,80.75
2022-08-17T18:54:23.620Z,81.21
2022-08-17T18:56:54.430Z,82.04
2022-08-17T18:59:33.315Z,82.56
2022-08-17T19:02:22.377Z,83.92
2022-08-17T19:05:11.300Z,82.78
2022-08-17T19:07:44.511Z,80.85
2022-08-17T19:10:28.045Z,80.82
2022-08-17T19:13:12.540Z,81.66
2022-08-17T19:16:12.127Z,82.66
2022-08-17T19:19:00.918Z,81.67
2022-08-17T19:21:37.029Z,80.03
2022-08-17T19:24:20.744Z,80.52
2022-08-17T19:27:02.758Z,81.25
2022-08-17T19:30:14.306Z,82.79
2022-08-17T19:32:41.761Z,81.47
2022-08-17T19:35:13.703Z,80.31
2022-08-17T19:38:12.829Z,80.72
2022-08-17T19:41:07.388Z,81.28
2022-08-17T19:43:34.677Z,83.38
2022-08-17T19:46:18.714Z,82.65
2022-08-17T19:48:56.034Z,81.09
2022-08-17T19:51:50.194Z,81.76
2022-08-17T19:54:24.303Z,83.31
2022-08-17T19:57:07.836Z,85.07
2022-08-17T19:59:54.854Z,83.56
2022-08-17T20:02:48.120Z,82.38
2022-08-17T20:05:19.881Z,82.46
2022-08-17T20:08:10.272Z,83.14
2022-08-17T20:10:55.287Z,83.80
2022-08-17T20:13:48.647Z,82.88
2022-08-17T20:16:16.678Z,81.48
2022-08-17T20:18:49.895Z,82.06
2022-08-17T20:21:45.784Z,82.93
2022-08-17T20:24:20.817Z,84.32
2022-08-17T20:26:55.525Z,83.17
2022-08-17T20:29:39.534Z,81.60
2022-08-17T20:32:22.003Z,82.07
2022-08-17T20:34:50.914Z,83.66
2022-08-17T20:37:18.142Z,84.60
2022-08-17T20:39:52.101Z,84.42
2022-08-17T20:42:22.313Z,82.44
2022-08-17T20:44:57.614Z,82.81
2022-08-17T20:47:35.226Z,83.72
2022-08-17T20:50:05.246Z,84.53
2022-08-17T20:52:35.401Z,83.62
2022-08-17T20:55:04.398Z,81.62
2022-08-17T20:57:31.801Z,81.22
2022-08-17T21:00:16.775Z,81.42
2022-08-17T21:02:49.245Z,82.06
2022-08-17T21:05:34.727Z,82.67
2022-08-17T21:08:29.643Z,82.04
2022-08-17T21:10:57.177Z,80.26
2022-08-17T21:13:37.124Z,80.26
2022-08-17T21:16:22.611Z,80.61
2022-08-17T21:18:59.687Z,81.25
2022-08-17T21:21:59.206Z,81.77
2022-08-17T21:24:51.338Z,81.38
2022-08-17T21:27:40.621Z,78.90
2022-08-17T21:30:09.489Z,78.61
2022-08-17T21:32:41.822Z,79.44
2022-08-17T21:35:28.060Z,80.94
2022-08-17T21:37:58.401Z,82.77
2022-08-17T21:40:28.473Z,82.41
2022-08-17T21:42:57.805Z,80.75
2022-08-17T21:45:26.826Z,80.30
2022-08-17T21:48:16.272Z,80.74
2022-08-17T21:50:44.959Z,81.35
2022-08-17T21:53:14.679Z,82.17
2022-08-17T21:55:41.614Z,81.87
2022-08-17T21:58:27.707Z,80.15
2022-08-17T22:01:24.214Z,80.04
2022-08-17T22:04:03.920Z,81.33
2022-08-17T22:06:41.808Z,82.49
2022-08-17T22:09:08.940Z,83.49
2022-08-17T22:11:56.575Z,82.57
2022-08-17T22:14:53.143Z,80.52
2022-08-17T22:17:36.131Z,79.97
2022-08-17T22:20:10.141Z,80.99
2022-08-17T22:23:19.612Z,82.27
2022-08-17T22:26:01.615Z,83.68
2022-08-17T22:28:48.324Z,82.20
2022-08-17T22:31:16.975Z,81.30
2022-08-17T22:33:48.526Z,81.74
2022-08-17T22:36:24.076Z,83.18
2022-08-17T22:39:10.578Z,85.04
2022-08-17T22:41:50.533Z,84.19
2022-08-17T22:44:17.582Z,83.49
2022-08-17T22:47:14.067Z,84.56
2022-08-17T22:49:54.663Z,85.56
2022-08-17T22:52:34.947Z,86.22
2022-08-17T22:55:34.338Z,84.50
2022-08-17T22:58:31.412Z,83.40
2022-08-17T23:01:29.364Z,83.31
2022-08-17T23:04:00.761Z,84.19
2022-08-17T23:06:28.375Z,84.76
2022-08-17T23:08:57.272Z,84.05
2022-08-17T23:11:36.639Z,81.95
2022-08-17T23:14:15.427Z,81.78
2022-08-17T23:16:42.593Z,82.01
2022-08-17T23:19:15.051Z,82.65
2022-08-17T23:21:46.091Z,83.62
2022-08-17T23:24:15.963Z,83.08
2022-08-17T23:26:43.156Z,81.16
2022-08-17T23:29:10.104Z,81.07
2022-08-17T23:31:38.211Z,82.03
2022-08-17T23:34:09.231Z,82.83
2022-08-17T23:36:36.467Z,83.75
2022-08-17T23:39:05.254Z,82.95
2022-08-17T23:41:35.884Z,80.67
2022-08-17T23:44:04.062Z,80.15
2022-08-17T23:46:32.439Z,81.05
2022-08-17T23:49:00.097Z,81.98
2022-08-17T23:51:28.458Z,82.56
2022-08-17T23:54:11.188Z,82.28
2022-08-17T23:56:57.087Z,80.11
2022-08-17T23:59:24.232Z,79.18
